createdAt,value
2022-07-31T00:01:20.171Z,41.02
2022-07-31T00:03:48.129Z,41.33
2022-07-31T00:06:16.142Z,41.03
2022-07-31T00:08:44.119Z,41.20
2022-07-31T00:11:12.628Z,41.71
2022-07-31T00:13:57.437Z,41.08
2022-07-31T00:16:27.966Z,40.87
2022-07-31T00:18:56.372Z,41.51
2022-07-31T00:21:24.596Z,41.11
2022-07-31T00:23:52.659Z,40.93
2022-07-31T00:26:20.590Z,40.71
2022-07-31T00:28:48.796Z,40.69
2022-07-31T00:31:18.374Z,40.87
2022-07-31T00:33:47.628Z,40.78
2022-07-31T00:36:15.525Z,40.90
2022-07-31T00:38:43.432Z,40.93
2022-07-31T00:41:11.382Z,40.23
2022-07-31T00:43:39.211Z,40.33
2022-07-31T00:46:07.120Z,40.23
2022-07-31T00:48:42.689Z,40.34
2022-07-31T00:51:12.593Z,40.24
2022-07-31T00:54:22.679Z,40.12
2022-07-31T00:56:51.696Z,40.37
2022-07-31T00:59:24.458Z,40.62
2022-07-31T01:02:13.911Z,40.66
2022-07-31T01:04:44.472Z,40.85
2022-07-31T01:07:15.263Z,40.85
2022-07-31T01:09:43.526Z,40.71
2022-07-31T01:12:19.304Z,40.56
2022-07-31T01:14:55.737Z,40.70
2022-07-31T01:17:24.260Z,41.07
2022-07-31T01:19:52.846Z,40.77
2022-07-31T01:22:32.938Z,40.51
2022-07-31T01:25:07.989Z,41.09
2022-07-31T01:27:49.443Z,40.80
2022-07-31T01:31:17.267Z,41.17
2022-07-31T01:33:50.067Z,41.25
2022-07-31T01:36:20.947Z,41.64
2022-07-31T01:38:59.798Z,41.56
2022-07-31T01:41:29.604Z,41.75
2022-07-31T01:43:58.178Z,41.73
2022-07-31T01:46:28.109Z,41.84
2022-07-31T01:48:56.149Z,41.30
2022-07-31T01:51:24.623Z,41.82
2022-07-31T01:53:52.575Z,41.18
2022-07-31T01:56:20.508Z,41.43
2022-07-31T01:58:48.659Z,42.03
2022-07-31T02:01:16.687Z,42.28
2022-07-31T02:03:45.993Z,41.95
2022-07-31T02:06:19.530Z,42.28
2022-07-31T02:08:48.199Z,41.87
2022-07-31T02:11:16.192Z,42.08
2022-07-31T02:13:44.161Z,42.37
2022-07-31T02:16:12.232Z,42.20
2022-07-31T02:18:40.101Z,42.33
2022-07-31T02:21:09.503Z,42.64
2022-07-31T02:23:38.557Z,43.06
2022-07-31T02:26:07.303Z,43.11
2022-07-31T02:28:35.821Z,42.60
2022-07-31T02:31:03.713Z,42.60
2022-07-31T02:33:31.567Z,42.66
2022-07-31T02:35:59.473Z,42.73
2022-07-31T02:38:28.832Z,43.01
2022-07-31T02:40:58.792Z,43.27
2022-07-31T02:43:26.938Z,43.20
2022-07-31T02:45:55.069Z,43.35
2022-07-31T02:48:22.952Z,43.16
2022-07-31T02:50:50.889Z,43.07
2022-07-31T02:53:18.719Z,43.15
2022-07-31T02:55:48.088Z,42.93
2022-07-31T02:58:16.022Z,43.28
2022-07-31T03:00:44.006Z,43.52
2022-07-31T03:03:12.005Z,43.50
2022-07-31T03:05:39.890Z,42.81
2022-07-31T03:08:07.856Z,42.98
2022-07-31T03:10:35.843Z,42.91
2022-07-31T03:13:05.101Z,42.87
2022-07-31T03:15:32.964Z,42.36
2022-07-31T03:18:00.884Z,42.51
2022-07-31T03:20:28.871Z,42.40
2022-07-31T03:22:56.812Z,42.51
2022-07-31T03:25:24.686Z,42.10
2022-07-31T03:27:56.194Z,42.56
2022-07-31T03:30:26.436Z,42.59
2022-07-31T03:32:54.462Z,42.52
2022-07-31T03:35:22.370Z,42.09
2022-07-31T03:37:50.340Z,42.12
2022-07-31T03:40:18.289Z,41.60
2022-07-31T03:42:46.149Z,41.09
2022-07-31T03:45:14.222Z,41.54
2022-07-31T03:47:44.102Z,41.48
2022-07-31T03:50:12.512Z,41.36
2022-07-31T03:52:40.841Z,41.05
2022-07-31T03:55:09.979Z,41.11
2022-07-31T03:57:38.323Z,41.29
2022-07-31T04:00:13.200Z,40.92
2022-07-31T04:02:47.246Z,40.84
2022-07-31T04:05:15.448Z,40.78
2022-07-31T04:07:43.850Z,40.71
2022-07-31T04:10:12.575Z,40.40
2022-07-31T04:12:40.855Z,39.79
2022-07-31T04:15:09.966Z,39.95
2022-07-31T04:17:38.204Z,39.75
2022-07-31T04:20:09.622Z,39.80
2022-07-31T04:22:37.849Z,39.43
2022-07-31T04:25:08.613Z,39.50
2022-07-31T04:27:48.652Z,39.52
2022-07-31T04:30:17.372Z,39.27
2022-07-31T04:32:46.399Z,39.55
2022-07-31T04:35:16.404Z,39.52
2022-07-31T04:37:48.099Z,39.56
2022-07-31T04:40:17.187Z,39.51
2022-07-31T04:42:45.133Z,39.95
2022-07-31T04:45:13.342Z,40.19
2022-07-31T04:47:41.254Z,39.67
2022-07-31T04:50:10.402Z,39.85
2022-07-31T04:52:39.692Z,40.37
2022-07-31T04:55:08.205Z,40.15
2022-07-31T04:57:36.170Z,39.92
2022-07-31T05:00:04.751Z,40.13
2022-07-31T05:02:32.678Z,40.21
2022-07-31T05:05:00.691Z,40.50
2022-07-31T05:07:28.998Z,40.82
2022-07-31T05:09:58.740Z,40.14
2022-07-31T05:12:26.861Z,40.60
2022-07-31T05:14:54.737Z,40.15
2022-07-31T05:17:23.667Z,40.37
2022-07-31T05:19:56.841Z,40.28
2022-07-31T05:22:24.690Z,40.78
2022-07-31T05:24:54.794Z,40.71
2022-07-31T05:27:24.087Z,40.77
2022-07-31T05:29:52.154Z,40.66
2022-07-31T05:32:20.023Z,40.99
2022-07-31T05:34:48.025Z,41.26
2022-07-31T05:37:15.942Z,40.65
2022-07-31T05:39:43.868Z,41.32
2022-07-31T05:42:12.194Z,41.55
2022-07-31T05:44:41.457Z,41.50
2022-07-31T05:47:09.512Z,41.50
2022-07-31T05:49:37.535Z,41.32
2022-07-31T05:52:06.215Z,41.12
2022-07-31T05:54:34.458Z,41.35
2022-07-31T05:57:02.417Z,41.48
2022-07-31T05:59:30.315Z,41.06
2022-07-31T06:02:00.290Z,41.23
2022-07-31T06:04:29.098Z,41.29
2022-07-31T06:06:57.326Z,41.46
2022-07-31T06:09:25.793Z,40.76
2022-07-31T06:11:53.977Z,40.65
2022-07-31T06:14:22.026Z,40.81
2022-07-31T06:16:50.296Z,40.62
2022-07-31T06:19:24.558Z,40.63
2022-07-31T06:22:01.879Z,40.23
2022-07-31T06:24:29.851Z,40.01
2022-07-31T06:26:58.199Z,39.05
2022-07-31T06:29:41.139Z,39.23
2022-07-31T06:32:10.250Z,38.92
2022-07-31T06:34:46.540Z,39.09
2022-07-31T06:37:30.987Z,38.74
2022-07-31T06:43:42.852Z,38.99
2022-07-31T06:46:14.571Z,38.29
2022-07-31T06:48:42.484Z,36.41
2022-07-31T06:51:30.303Z,34.95
2022-07-31T06:53:59.067Z,34.70
2022-07-31T06:56:26.965Z,34.72
2022-07-31T06:58:55.270Z,34.68
2022-07-31T07:01:23.481Z,34.96
2022-07-31T07:03:51.606Z,34.86
2022-07-31T07:06:20.895Z,35.39
2022-07-31T07:08:48.893Z,35.32
2022-07-31T07:11:17.320Z,35.62
2022-07-31T07:13:46.827Z,35.54
2022-07-31T07:16:16.253Z,35.96
2022-07-31T07:18:44.381Z,35.51
2022-07-31T07:21:12.406Z,35.77
2022-07-31T07:23:41.770Z,35.68
2022-07-31T07:26:09.640Z,36.47
2022-07-31T07:28:37.514Z,36.29
2022-07-31T07:31:06.924Z,36.48
2022-07-31T07:33:40.789Z,36.17
2022-07-31T07:36:23.002Z,36.16
2022-07-31T07:38:54.910Z,36.29
2022-07-31T07:41:23.993Z,36.65
2022-07-31T07:43:52.308Z,37.22
2022-07-31T07:46:21.203Z,37.40
2022-07-31T07:48:50.890Z,37.45
2022-07-31T07:51:21.195Z,37.51
2022-07-31T07:53:49.202Z,37.81
2022-07-31T07:56:18.693Z,37.81
2022-07-31T07:58:46.621Z,38.57
2022-07-31T08:01:14.882Z,38.91
2022-07-31T08:03:50.686Z,40.02
2022-07-31T08:06:21.163Z,40.20
2022-07-31T08:08:49.119Z,40.27
2022-07-31T08:11:18.565Z,39.66
2022-07-31T08:13:50.670Z,39.83
2022-07-31T08:16:20.223Z,40.14
2022-07-31T08:18:48.295Z,39.48
2022-07-31T08:21:16.324Z,40.09
2022-07-31T08:23:44.683Z,39.44
2022-07-31T08:26:14.049Z,38.16
2022-07-31T08:28:50.790Z,37.96
2022-07-31T08:31:20.020Z,37.40
2022-07-31T08:33:48.610Z,37.68
2022-07-31T08:36:16.490Z,37.14
2022-07-31T08:38:44.396Z,37.57
2022-07-31T08:41:14.781Z,36.82
2022-07-31T08:44:00.381Z,37.08
2022-07-31T08:46:32.524Z,37.21
2022-07-31T08:49:00.455Z,36.87
2022-07-31T08:51:28.385Z,37.20
2022-07-31T08:53:56.307Z,36.99
2022-07-31T08:56:24.383Z,36.43
2022-07-31T08:58:53.999Z,37.01
2022-07-31T09:01:21.940Z,36.42
2022-07-31T09:03:49.829Z,36.84
2022-07-31T09:06:17.685Z,36.96
2022-07-31T09:08:45.656Z,36.93
2022-07-31T09:11:15.522Z,37.15
2022-07-31T09:14:01.811Z,36.83
2022-07-31T09:16:31.363Z,36.97
2022-07-31T09:19:00.175Z,37.14
2022-07-31T09:21:28.137Z,36.94
2022-07-31T09:23:56.297Z,37.69
2022-07-31T09:26:33.928Z,36.85
2022-07-31T09:29:04.608Z,36.43
2022-07-31T09:31:33.554Z,36.81
2022-07-31T09:34:01.793Z,36.62
2022-07-31T09:36:29.729Z,35.41
2022-07-31T09:47:26.994Z,34.71
2022-07-31T09:49:58.239Z,34.26
2022-07-31T09:52:26.516Z,33.93
2022-07-31T09:55:15.905Z,34.04
2022-07-31T09:57:52.515Z,33.73
2022-07-31T10:00:20.441Z,33.02
2022-07-31T10:02:49.680Z,33.03
2022-07-31T10:05:17.633Z,32.84
2022-07-31T10:07:45.642Z,32.47
2022-07-31T10:10:20.002Z,32.17
2022-07-31T10:12:55.529Z,32.05
2022-07-31T10:15:24.153Z,32.83
2022-07-31T10:17:55.126Z,32.66
2022-07-31T10:20:26.302Z,32.02
2022-07-31T10:22:55.530Z,32.34
2022-07-31T10:25:26.284Z,32.48
2022-07-31T10:27:54.562Z,31.93
2022-07-31T10:30:27.376Z,31.80
2022-07-31T10:32:58.655Z,32.44
2022-07-31T10:35:26.921Z,32.18
2022-07-31T10:37:57.844Z,32.74
2022-07-31T10:40:28.758Z,32.89
2022-07-31T10:43:03.077Z,32.82
2022-07-31T10:45:32.117Z,32.89
2022-07-31T10:48:03.505Z,32.32
2022-07-31T10:50:32.115Z,32.29
2022-07-31T10:53:09.023Z,32.41
2022-07-31T10:55:37.478Z,32.15
2022-07-31T10:58:09.832Z,31.87
2022-07-31T11:00:37.974Z,31.04
2022-07-31T11:03:24.557Z,29.72
2022-07-31T11:06:01.930Z,29.37
2022-07-31T11:08:41.247Z,29.34
2022-07-31T11:11:09.195Z,29.92
2022-07-31T11:13:46.191Z,29.27
2022-07-31T11:16:14.116Z,28.79
2022-07-31T11:18:46.040Z,27.90
2022-07-31T11:21:37.130Z,28.06
2022-07-31T11:24:03.184Z,28.61
2022-07-31T11:26:41.512Z,28.07
2022-07-31T11:30:00.007Z,28.45
2022-07-31T11:32:14.466Z,27.97
2022-07-31T11:34:51.935Z,28.21
2022-07-31T11:37:22.938Z,28.60
2022-07-31T11:39:52.572Z,28.60
2022-07-31T11:42:21.234Z,29.93
2022-07-31T11:45:15.032Z,29.75
2022-07-31T11:48:12.159Z,30.39
2022-07-31T11:50:32.372Z,30.48
2022-07-31T11:53:04.700Z,30.52
2022-07-31T11:55:33.031Z,30.06
2022-07-31T11:58:01.035Z,30.20
2022-07-31T12:00:30.510Z,29.89
2022-07-31T12:02:58.716Z,29.80
2022-07-31T12:05:35.275Z,29.63
2022-07-31T12:08:07.538Z,30.05
2022-07-31T12:10:35.493Z,30.60
2022-07-31T12:13:03.548Z,31.29
2022-07-31T12:15:32.868Z,31.84
2022-07-31T12:18:01.765Z,31.76
2022-07-31T12:20:35.789Z,32.33
2022-07-31T12:23:05.728Z,32.46
2022-07-31T12:25:43.378Z,32.27
2022-07-31T12:28:11.458Z,32.23
2022-07-31T12:30:40.725Z,32.12
2022-07-31T12:33:09.171Z,31.28
2022-07-31T12:35:55.886Z,31.84
2022-07-31T12:38:48.036Z,31.32
2022-07-31T12:41:13.988Z,30.25
2022-07-31T12:43:52.500Z,30.01
2022-07-31T12:46:36.246Z,30.48
2022-07-31T12:49:04.341Z,30.07
2022-07-31T12:51:45.284Z,30.04
2022-07-31T12:54:17.819Z,29.58
2022-07-31T12:56:47.501Z,29.82
2022-07-31T12:59:42.949Z,30.10
2022-07-31T13:02:14.728Z,29.44
2022-07-31T13:04:42.844Z,30.04
2022-07-31T13:07:12.955Z,29.76
2022-07-31T13:09:40.967Z,30.31
2022-07-31T13:12:12.787Z,29.76
2022-07-31T13:14:40.740Z,30.09
2022-07-31T13:17:08.769Z,30.65
2022-07-31T13:19:38.513Z,30.03
2022-07-31T13:22:09.394Z,30.38
2022-07-31T13:24:37.256Z,30.37
2022-07-31T13:27:06.007Z,29.95
2022-07-31T13:29:34.589Z,31.09
2022-07-31T13:32:02.674Z,31.07
2022-07-31T13:34:30.558Z,30.67
2022-07-31T13:37:00.086Z,31.21
2022-07-31T13:39:48.795Z,31.04
2022-07-31T13:42:16.674Z,31.70
2022-07-31T13:44:47.613Z,32.35
2022-07-31T13:47:15.575Z,32.50
2022-07-31T13:49:43.615Z,32.68
2022-07-31T13:52:24.607Z,32.86
2022-07-31T13:54:52.610Z,33.23
2022-07-31T13:57:20.653Z,33.52
2022-07-31T13:59:48.560Z,33.16
2022-07-31T14:02:16.843Z,33.54
2022-07-31T14:04:45.079Z,33.54
2022-07-31T14:07:13.190Z,33.39
2022-07-31T14:09:51.353Z,33.31
2022-07-31T14:12:24.188Z,33.48
2022-07-31T14:14:52.518Z,33.93
2022-07-31T14:17:21.252Z,33.83
2022-07-31T14:19:49.312Z,33.87
2022-07-31T14:22:17.319Z,34.19
2022-07-31T14:24:50.719Z,33.79
2022-07-31T14:27:19.647Z,33.50
2022-07-31T14:29:47.858Z,33.32
2022-07-31T14:32:15.826Z,33.01
2022-07-31T14:34:43.746Z,33.16
2022-07-31T14:37:12.694Z,32.79
2022-07-31T14:39:42.932Z,33.23
2022-07-31T14:42:12.743Z,32.59
2022-07-31T14:44:42.139Z,32.64
2022-07-31T14:47:10.944Z,33.25
2022-07-31T14:50:08.996Z,32.64
2022-07-31T14:52:28.315Z,32.60
2022-07-31T14:54:56.249Z,33.12
2022-07-31T14:59:58.844Z,33.64
2022-07-31T15:02:26.709Z,32.80
2022-07-31T15:04:54.734Z,33.17
2022-07-31T15:07:43.982Z,33.32
2022-07-31T15:10:11.580Z,33.29
2022-07-31T15:12:39.663Z,33.62
2022-07-31T15:15:10.602Z,32.95
2022-07-31T15:17:38.742Z,32.95
2022-07-31T15:20:07.666Z,33.30
2022-07-31T15:22:35.813Z,33.21
2022-07-31T15:25:04.263Z,33.02
2022-07-31T15:27:34.410Z,33.30
2022-07-31T15:30:06.921Z,33.08
2022-07-31T15:32:37.661Z,33.35
2022-07-31T15:35:06.248Z,33.21
2022-07-31T15:37:35.471Z,33.44
2022-07-31T15:40:04.769Z,33.06
2022-07-31T15:42:32.914Z,33.11
2022-07-31T15:45:00.896Z,33.34
2022-07-31T15:47:28.737Z,33.30
2022-07-31T15:49:58.019Z,33.35
2022-07-31T15:52:26.153Z,33.51
2022-07-31T15:54:54.156Z,33.65
2022-07-31T15:57:22.118Z,33.82
2022-07-31T15:59:50.173Z,34.10
2022-07-31T16:02:18.389Z,34.64
2022-07-31T16:04:53.097Z,34.81
2022-07-31T16:08:34.229Z,34.48
2022-07-31T16:10:18.034Z,34.07
2022-07-31T16:12:46.353Z,34.26
2022-07-31T16:15:14.320Z,34.25
2022-07-31T16:17:42.238Z,34.20
2022-07-31T16:20:11.436Z,34.50
2022-07-31T16:22:41.525Z,34.53
2022-07-31T16:25:10.005Z,34.62
2022-07-31T16:27:39.081Z,34.66
2022-07-31T16:30:08.820Z,34.81
2022-07-31T16:32:36.650Z,34.71
2022-07-31T16:35:06.251Z,35.10
2022-07-31T16:37:51.138Z,34.89
2022-07-31T16:40:28.983Z,34.71
2022-07-31T16:43:01.899Z,35.12
2022-07-31T16:45:36.534Z,35.47
2022-07-31T16:48:07.954Z,35.50
2022-07-31T16:50:35.840Z,35.47
2022-07-31T16:53:03.744Z,35.59
2022-07-31T16:56:00.270Z,35.62
2022-07-31T16:58:24.672Z,35.94
2022-07-31T17:00:52.822Z,35.72
2022-07-31T17:04:00.194Z,35.72
2022-07-31T17:06:11.265Z,35.98
2022-07-31T17:08:39.134Z,36.15
2022-07-31T17:11:08.734Z,36.41
2022-07-31T17:13:36.600Z,36.63
2022-07-31T17:16:04.879Z,36.99
2022-07-31T17:18:32.762Z,37.07
2022-07-31T17:21:00.827Z,37.19
2022-07-31T17:23:43.976Z,37.27
2022-07-31T17:26:21.400Z,37.29
2022-07-31T17:28:50.717Z,37.36
2022-07-31T17:31:20.707Z,37.59
2022-07-31T17:34:00.639Z,37.86
2022-07-31T17:36:30.055Z,38.10
2022-07-31T17:41:40.725Z,38.03
2022-07-31T17:44:08.924Z,37.87
2022-07-31T17:46:48.063Z,37.80
2022-07-31T17:49:20.611Z,38.16
2022-07-31T17:51:58.794Z,38.05
2022-07-31T17:54:27.618Z,38.03
2022-07-31T17:56:57.234Z,38.30
2022-07-31T17:59:26.024Z,38.38
2022-07-31T18:01:59.763Z,38.16
2022-07-31T18:04:27.965Z,38.45
2022-07-31T18:06:55.806Z,38.57
2022-07-31T18:09:24.213Z,38.88
2022-07-31T18:11:52.126Z,39.13
2022-07-31T18:14:24.481Z,39.39
2022-07-31T18:16:52.964Z,39.55
2022-07-31T18:19:21.866Z,40.57
2022-07-31T18:21:53.299Z,41.35
2022-07-31T18:24:21.632Z,41.47
2022-07-31T18:27:02.488Z,42.50
2022-07-31T18:29:32.057Z,42.83
2022-07-31T18:32:00.319Z,43.41
2022-07-31T18:34:28.833Z,43.83
2022-07-31T18:36:56.995Z,44.44
2022-07-31T18:39:25.097Z,44.54
2022-07-31T18:41:53.866Z,44.95
2022-07-31T18:44:22.853Z,45.27
2022-07-31T18:46:53.671Z,45.30
2022-07-31T18:51:01.666Z,46.06
2022-07-31T18:52:10.383Z,46.11
2022-07-31T18:54:39.065Z,46.33
2022-07-31T18:57:07.970Z,46.08
2022-07-31T18:59:35.937Z,46.62
2022-07-31T19:02:05.667Z,47.13
2022-07-31T19:04:34.163Z,47.25
2022-07-31T19:07:02.198Z,47.53
2022-07-31T19:09:30.476Z,48.16
2022-07-31T19:11:59.033Z,49.39
2022-07-31T19:14:27.080Z,50.18
2022-07-31T19:16:57.853Z,50.47
2022-07-31T19:19:54.217Z,51.44
2022-07-31T19:22:15.147Z,51.62
2022-07-31T19:24:45.118Z,52.50
2022-07-31T19:27:13.076Z,52.86
2022-07-31T19:29:41.064Z,53.28
2022-07-31T19:32:09.033Z,53.69
2022-07-31T19:34:38.435Z,54.14
2022-07-31T19:37:10.019Z,54.27
2022-07-31T19:39:37.903Z,54.35
2022-07-31T19:42:11.803Z,54.66
2022-07-31T19:44:40.241Z,54.78
2022-07-31T19:47:08.249Z,55.31
2022-07-31T19:49:38.382Z,55.13
2022-07-31T19:52:08.428Z,55.24
2022-07-31T19:54:36.472Z,55.21
2022-07-31T19:57:04.370Z,55.33
2022-07-31T19:59:32.269Z,55.05
2022-07-31T20:02:00.135Z,55.48
2022-07-31T20:04:27.997Z,55.82
2022-07-31T20:06:57.466Z,55.83
2022-07-31T20:09:26.752Z,56.03
2022-07-31T20:11:54.650Z,56.07
2022-07-31T20:14:22.553Z,55.80
2022-07-31T20:16:50.455Z,55.83
2022-07-31T20:19:18.313Z,56.59
2022-07-31T20:21:46.215Z,56.39
2022-07-31T20:24:17.749Z,56.90
2022-07-31T20:26:47.122Z,56.92
2022-07-31T20:29:15.088Z,56.95
2022-07-31T20:31:43.196Z,56.87
2022-07-31T20:34:11.024Z,56.67
2022-07-31T20:36:39.566Z,56.79
2022-07-31T20:39:07.590Z,56.96
2022-07-31T20:41:36.231Z,56.95
2022-07-31T20:44:05.975Z,57.06
2022-07-31T20:46:34.168Z,57.08
2022-07-31T20:49:02.059Z,56.76
2022-07-31T20:51:29.940Z,56.75
2022-07-31T20:53:58.243Z,56.72
2022-07-31T20:56:26.277Z,56.73
2022-07-31T20:58:54.119Z,56.72
2022-07-31T21:01:23.613Z,56.86
2022-07-31T21:03:51.597Z,57.03
2022-07-31T21:06:21.123Z,57.29
2022-07-31T21:08:49.022Z,57.54
2022-07-31T21:11:17.361Z,57.36
2022-07-31T21:13:45.567Z,57.18
2022-07-31T21:16:13.778Z,57.39
2022-07-31T21:18:43.753Z,57.51
2022-07-31T21:21:11.893Z,57.48
2022-07-31T21:23:39.834Z,57.50
2022-07-31T21:26:08.790Z,57.52
2022-07-31T21:28:37.004Z,57.75
2022-07-31T21:31:05.476Z,57.66
2022-07-31T21:33:34.022Z,57.34
2022-07-31T21:36:05.909Z,57.46
2022-07-31T21:38:35.347Z,57.72
2022-07-31T21:41:03.794Z,57.67
2022-07-31T21:43:33.530Z,57.74
2022-07-31T21:46:21.085Z,57.83
2022-07-31T21:48:51.468Z,57.99
2022-07-31T21:51:21.500Z,57.93
2022-07-31T21:53:49.464Z,58.13
2022-07-31T21:56:17.526Z,57.97
2022-07-31T21:58:45.792Z,57.81
2022-07-31T22:01:15.375Z,58.11
2022-07-31T22:03:43.823Z,57.68
2022-07-31T22:06:29.537Z,57.51
2022-07-31T22:08:59.501Z,57.71
2022-07-31T22:11:27.747Z,57.36
2022-07-31T22:13:56.845Z,57.71
2022-07-31T22:16:25.088Z,57.16
2022-07-31T22:18:53.830Z,57.28
2022-07-31T22:21:22.282Z,57.21
2022-07-31T22:23:50.876Z,57.21
2022-07-31T22:26:21.181Z,57.76
2022-07-31T22:28:52.473Z,57.22
2022-07-31T22:31:21.757Z,57.41
2022-07-31T22:33:51.958Z,57.55
2022-07-31T22:36:19.883Z,57.85
2022-07-31T22:38:48.184Z,57.94
2022-07-31T22:41:16.390Z,57.90
2022-07-31T22:44:12.756Z,57.53
2022-07-31T22:46:33.905Z,57.65
2022-07-31T22:49:02.020Z,57.25
2022-07-31T22:51:30.129Z,57.66
2022-07-31T22:53:58.247Z,57.85
2022-07-31T22:56:26.192Z,57.83
2022-07-31T22:58:55.527Z,57.63
2022-07-31T23:01:23.433Z,57.79
2022-07-31T23:03:53.651Z,57.89
2022-07-31T23:06:31.819Z,57.90
2022-07-31T23:09:01.082Z,57.67
2022-07-31T23:11:29.011Z,58.08
2022-07-31T23:13:58.250Z,58.00
2022-07-31T23:16:26.127Z,58.49
2022-07-31T23:18:54.008Z,58.15
2022-07-31T23:21:21.869Z,57.90
2022-07-31T23:23:49.865Z,58.19
2022-07-31T23:26:18.954Z,58.18
2022-07-31T23:28:47.079Z,58.50
2022-07-31T23:31:16.313Z,58.48
2022-07-31T23:33:44.276Z,58.68
2022-07-31T23:36:12.194Z,58.88
2022-07-31T23:38:40.123Z,58.97
2022-07-31T23:41:08.006Z,59.20
2022-07-31T23:43:34.981Z,59.22
2022-07-31T23:46:02.917Z,59.05
2022-07-31T23:48:32.825Z,59.29
2022-07-31T23:51:00.753Z,59.27
2022-07-31T23:53:28.741Z,59.14
2022-07-31T23:58:24.498Z,59.47
